createdAt,value
2023-05-08T00:00:59.046Z,18.40
2023-05-08T00:03:26.542Z,18.40
2023-05-08T00:05:55.455Z,18.40
2023-05-08T00:08:22.259Z,18.40
2023-05-08T00:10:49.074Z,18.40
2023-05-08T00:13:16.245Z,18.30
2023-05-08T00:15:42.984Z,18.30
2023-05-08T00:18:09.792Z,18.30
2023-05-08T00:20:36.623Z,18.30
2023-05-08T00:23:03.477Z,18.20
2023-05-08T00:25:31.368Z,18.20
2023-05-08T00:27:58.903Z,18.20
2023-05-08T00:30:25.614Z,18.20
2023-05-08T00:37:47.247Z,18.20
2023-05-08T00:40:14.320Z,18.20
2023-05-08T00:45:09.118Z,18.10
2023-05-08T00:47:35.852Z,18.10
2023-05-08T00:50:03.290Z,18.00
2023-05-08T00:52:31.806Z,18.00
2023-05-08T00:54:59.143Z,18.00
2023-05-08T00:57:25.994Z,18.00
2023-05-08T00:59:54.057Z,17.90
2023-05-08T01:02:21.115Z,17.90
2023-05-08T01:04:48.521Z,17.90
2023-05-08T01:07:17.989Z,17.90
2023-05-08T01:09:44.660Z,17.90
2023-05-08T01:12:14.042Z,17.90
2023-05-08T01:14:51.996Z,17.90
2023-05-08T01:17:36.429Z,17.90
2023-05-08T01:20:11.218Z,17.80
2023-05-08T01:23:17.939Z,17.80
2023-05-08T01:26:13.649Z,17.80
2023-05-08T01:29:01.279Z,17.80
2023-05-08T01:31:47.436Z,17.80
2023-05-08T01:34:35.387Z,17.80
2023-05-08T01:37:06.624Z,17.70
2023-05-08T01:39:48.209Z,17.70
2023-05-08T01:42:28.803Z,17.70
2023-05-08T01:45:03.332Z,17.70
2023-05-08T01:47:33.329Z,17.70
2023-05-08T01:50:33.438Z,17.70
2023-05-08T01:53:08.039Z,17.70
2023-05-08T01:55:37.379Z,17.60
2023-05-08T01:58:09.868Z,17.60
2023-05-08T02:00:40.652Z,17.60
2023-05-08T02:03:09.309Z,17.60
2023-05-08T02:08:04.150Z,17.60
2023-05-08T02:10:31.852Z,17.60
2023-05-08T02:13:01.378Z,17.60
2023-05-08T02:15:30.785Z,17.50
2023-05-08T02:17:58.776Z,17.50
2023-05-08T02:20:27.817Z,17.50
2023-05-08T02:22:55.269Z,17.50
2023-05-08T02:25:23.345Z,17.50
2023-05-08T02:27:51.781Z,17.50
2023-05-08T02:30:20.105Z,17.50
2023-05-08T02:32:48.384Z,17.50
2023-05-08T02:35:17.244Z,17.50
2023-05-08T02:37:55.530Z,17.40
2023-05-08T02:40:24.633Z,17.40
2023-05-08T02:42:51.435Z,17.40
2023-05-08T02:45:18.654Z,17.40
2023-05-08T02:48:01.812Z,17.40
2023-05-08T02:51:19.508Z,17.40
2023-05-08T02:53:51.933Z,17.30
2023-05-08T02:56:36.179Z,17.30
2023-05-08T02:59:18.910Z,17.30
2023-05-08T03:01:53.863Z,17.50
2023-05-08T03:04:30.735Z,17.30
2023-05-08T03:06:58.364Z,17.30
2023-05-08T03:09:32.105Z,17.30
2023-05-08T03:12:04.810Z,17.30
2023-05-08T03:14:34.684Z,17.30
2023-05-08T03:17:04.631Z,17.30
2023-05-08T03:19:35.980Z,17.30
2023-05-08T03:22:04.141Z,17.30
2023-05-08T03:24:33.620Z,17.20
2023-05-08T03:27:01.168Z,17.20
2023-05-08T03:51:39.359Z,17.20
2023-05-08T03:54:06.162Z,17.10
2023-05-08T03:56:34.393Z,17.10
2023-05-08T03:59:13.767Z,17.10
2023-05-08T04:01:50.046Z,17.10
2023-05-08T04:04:24.367Z,17.10
2023-05-08T04:07:13.844Z,17.10
2023-05-08T04:09:55.239Z,17.10
2023-05-08T04:12:50.618Z,17.10
2023-05-08T04:15:30.544Z,17.10
2023-05-08T04:18:08.208Z,17.00
2023-05-08T04:20:35.745Z,17.10
2023-05-08T04:23:03.798Z,17.00
2023-05-08T04:25:32.373Z,17.00
2023-05-08T04:27:59.687Z,17.00
2023-05-08T04:32:55.795Z,17.00
2023-05-08T04:35:22.449Z,17.00
2023-05-08T04:37:49.221Z,17.00
2023-05-08T04:40:15.882Z,17.00
2023-05-08T04:42:43.585Z,17.00
2023-05-08T04:45:10.898Z,17.00
2023-05-08T04:47:37.847Z,17.00
2023-05-08T04:50:05.023Z,17.00
2023-05-08T04:52:31.891Z,17.00
2023-05-08T04:54:59.531Z,17.00
2023-05-08T04:57:26.317Z,17.00
2023-05-08T04:59:53.087Z,17.00
2023-05-08T05:02:21.861Z,17.00
2023-05-08T05:04:49.106Z,17.00
2023-05-08T05:07:15.759Z,17.10
2023-05-08T05:09:44.138Z,17.10
2023-05-08T05:12:10.936Z,17.10
2023-05-08T05:14:37.629Z,17.10
2023-05-08T05:17:06.164Z,17.20
2023-05-08T05:19:32.923Z,17.30
2023-05-08T05:21:59.976Z,17.40
2023-05-08T05:24:26.615Z,17.40
2023-05-08T05:26:53.249Z,17.40
2023-05-08T05:29:19.978Z,17.40
2023-05-08T05:31:46.690Z,17.40
2023-05-08T05:34:13.430Z,17.40
2023-05-08T05:36:40.228Z,17.40
2023-05-08T05:39:06.937Z,17.40
2023-05-08T05:41:34.267Z,17.50
2023-05-08T05:44:01.026Z,17.50
2023-05-08T05:46:32.426Z,17.60
2023-05-08T05:48:59.498Z,17.60
2023-05-08T05:51:27.627Z,17.60
2023-05-08T05:53:54.302Z,17.60
2023-05-08T05:56:23.186Z,17.60
2023-05-08T05:58:50.012Z,17.70
2023-05-08T06:01:17.025Z,17.70
2023-05-08T06:03:44.185Z,17.70
2023-05-08T06:06:11.304Z,17.80
2023-05-08T06:08:37.948Z,17.80
2023-05-08T06:11:04.770Z,17.90
2023-05-08T06:13:32.888Z,17.90
2023-05-08T06:15:59.820Z,18.00
2023-05-08T06:18:26.736Z,18.00
2023-05-08T06:20:57.872Z,18.10
2023-05-08T06:23:24.929Z,18.10
2023-05-08T06:25:51.775Z,18.10
2023-05-08T06:28:22.577Z,18.10
2023-05-08T06:30:49.423Z,17.90
2023-05-08T06:33:16.180Z,17.90
2023-05-08T06:35:47.214Z,17.90
2023-05-08T06:38:15.627Z,17.80
2023-05-08T06:40:44.052Z,17.80
2023-05-08T06:43:11.745Z,17.80
2023-05-08T06:45:40.271Z,17.70
2023-05-08T06:48:07.073Z,17.70
2023-05-08T06:50:37.496Z,17.70
2023-05-08T06:53:04.271Z,17.70
2023-05-08T06:55:30.933Z,17.60
2023-05-08T06:57:57.720Z,17.60
2023-05-08T07:00:24.681Z,17.70
2023-05-08T07:02:52.223Z,17.70
2023-05-08T07:05:20.003Z,17.70
2023-05-08T07:07:46.998Z,17.70
2023-05-08T07:10:14.097Z,17.70
2023-05-08T07:12:41.337Z,17.70
2023-05-08T07:15:23.919Z,17.80
2023-05-08T07:17:54.091Z,17.80
2023-05-08T07:20:21.576Z,17.80
2023-05-08T07:22:49.707Z,17.90
2023-05-08T07:25:16.909Z,17.90
2023-05-08T07:27:43.743Z,17.90
2023-05-08T07:30:10.854Z,17.90
2023-05-08T07:32:39.206Z,17.90
2023-05-08T07:35:10.306Z,18.00
2023-05-08T07:37:37.806Z,18.00
2023-05-08T07:40:04.858Z,17.90
2023-05-08T07:42:31.565Z,17.90
2023-05-08T07:44:58.307Z,17.90
2023-05-08T07:47:25.195Z,18.00
2023-05-08T07:49:53.083Z,18.00
2023-05-08T07:52:19.999Z,18.00
2023-05-08T07:54:46.714Z,18.00
2023-05-08T07:57:13.391Z,18.00
2023-05-08T07:59:40.166Z,18.00
2023-05-08T08:02:07.535Z,18.00
2023-05-08T08:04:34.454Z,18.10
2023-05-08T08:07:04.125Z,18.10
2023-05-08T08:09:31.231Z,18.10
2023-05-08T08:11:58.243Z,18.10
2023-05-08T08:14:24.903Z,18.10
2023-05-08T08:16:51.613Z,18.10
2023-05-08T08:19:19.332Z,18.20
2023-05-08T08:21:46.353Z,18.20
2023-05-08T08:24:13.549Z,18.20
2023-05-08T08:26:40.352Z,18.20
2023-05-08T08:29:07.112Z,18.20
2023-05-08T08:31:34.040Z,18.20
2023-05-08T08:34:00.928Z,18.20
2023-05-08T08:36:28.135Z,18.20
2023-05-08T08:38:54.809Z,18.30
2023-05-08T08:41:22.194Z,18.30
2023-05-08T08:43:49.208Z,18.30
2023-05-08T08:46:20.129Z,18.30
2023-05-08T08:48:47.579Z,18.40
2023-05-08T08:51:41.852Z,18.40
2023-05-08T08:54:11.345Z,18.40
2023-05-08T08:56:40.766Z,18.40
2023-05-08T08:59:08.999Z,18.40
2023-05-08T09:01:38.786Z,18.40
2023-05-08T09:04:05.993Z,18.50
2023-05-08T09:06:37.174Z,18.50
2023-05-08T09:09:04.818Z,18.50
2023-05-08T09:11:31.587Z,18.50
2023-05-08T09:13:59.483Z,18.50
2023-05-08T09:16:28.565Z,18.50
2023-05-08T09:18:55.432Z,18.50
2023-05-08T09:21:23.316Z,18.50
2023-05-08T09:23:59.924Z,18.60
2023-05-08T09:26:44.528Z,18.60
2023-05-08T09:29:18.131Z,18.70
2023-05-08T09:31:47.085Z,18.60
2023-05-08T09:34:28.799Z,18.60
2023-05-08T09:36:56.687Z,18.60
2023-05-08T09:39:25.886Z,18.70
2023-05-08T09:42:03.716Z,18.70
2023-05-08T09:44:53.894Z,18.70
2023-05-08T09:47:23.018Z,18.70
2023-05-08T09:49:59.517Z,18.70
2023-05-08T09:52:30.071Z,18.70
2023-05-08T09:55:04.284Z,18.80
2023-05-08T09:57:32.986Z,18.80
2023-05-08T10:00:11.740Z,18.80
2023-05-08T10:02:55.328Z,18.90
2023-05-08T10:05:34.552Z,18.90
2023-05-08T10:08:22.070Z,18.90
2023-05-08T10:10:49.254Z,18.90
2023-05-08T10:13:16.029Z,18.90
2023-05-08T10:15:43.949Z,18.90
2023-05-08T10:18:12.280Z,19.00
2023-05-08T10:20:40.011Z,19.00
2023-05-08T10:23:17.087Z,19.00
2023-05-08T10:25:46.629Z,19.00
2023-05-08T10:28:24.844Z,19.10
2023-05-08T10:30:54.402Z,19.00
2023-05-08T10:33:23.951Z,19.10
2023-05-08T10:35:50.889Z,19.10
2023-05-08T10:38:18.986Z,19.10
2023-05-08T10:40:46.220Z,19.20
2023-05-08T10:43:15.752Z,19.20
2023-05-08T10:45:43.283Z,19.20
2023-05-08T10:48:48.766Z,19.20
2023-05-08T10:51:23.749Z,19.20
2023-05-08T10:53:55.353Z,19.20
2023-05-08T10:56:28.965Z,19.30
2023-05-08T10:58:57.749Z,19.30
2023-05-08T11:01:28.226Z,19.30
2023-05-08T11:03:56.246Z,19.30
2023-05-08T11:06:49.394Z,19.30
2023-05-08T11:09:26.986Z,19.30
2023-05-08T11:12:08.547Z,19.30
2023-05-08T11:14:39.459Z,19.40
2023-05-08T11:17:06.903Z,19.40
2023-05-08T11:19:33.994Z,19.40
2023-05-08T11:30:05.609Z,19.40
2023-05-08T11:33:03.589Z,19.50
2023-05-08T11:35:50.954Z,19.50
2023-05-08T11:38:19.276Z,19.50
2023-05-08T11:41:19.610Z,19.60
2023-05-08T11:44:04.754Z,19.60
2023-05-08T11:46:40.370Z,19.60
2023-05-08T11:49:12.302Z,19.60
2023-05-08T11:51:44.817Z,19.60
2023-05-08T11:54:17.575Z,19.70
2023-05-08T11:56:47.834Z,19.70
2023-05-08T11:59:17.063Z,19.70
2023-05-08T12:01:48.543Z,19.70
2023-05-08T12:04:23.578Z,19.70
2023-05-08T12:06:56.715Z,19.80
2023-05-08T12:09:23.635Z,19.80
2023-05-08T12:11:57.906Z,19.80
2023-05-08T12:14:24.774Z,19.80
2023-05-08T12:16:51.688Z,19.80
2023-05-08T12:19:18.410Z,19.90
2023-05-08T15:52:08.549Z,19.90
2023-05-08T15:54:35.301Z,21.60
2023-05-08T15:57:02.059Z,21.60
2023-05-08T22:08:21.964Z,21.60
2023-05-08T22:10:48.701Z,20.40
2023-05-08T22:13:15.478Z,20.40
2023-05-08T22:15:42.821Z,20.30
2023-05-08T22:18:09.554Z,20.30
2023-05-08T22:20:36.279Z,20.30
2023-05-08T22:23:03.086Z,20.30
2023-05-08T22:25:29.897Z,20.30
2023-05-08T22:27:56.591Z,20.30
2023-05-08T22:30:23.305Z,20.30
2023-05-08T22:32:57.647Z,20.20
2023-05-08T22:35:27.613Z,20.20
2023-05-08T22:37:54.918Z,20.20
2023-05-08T22:40:22.244Z,20.20
2023-05-08T22:42:51.870Z,20.20
2023-05-08T22:45:19.325Z,20.20
2023-05-08T22:47:46.283Z,20.20
2023-05-08T22:50:13.186Z,20.10
2023-05-08T22:52:40.291Z,20.10
2023-05-08T22:55:07.830Z,20.10
2023-05-08T22:57:34.673Z,20.10
2023-05-08T23:00:01.393Z,20.10
2023-05-08T23:02:33.059Z,20.10
2023-05-08T23:05:00.350Z,20.10
2023-05-08T23:07:27.274Z,20.10
2023-05-08T23:09:54.009Z,20.00
2023-05-08T23:12:20.672Z,20.00
2023-05-08T23:14:47.390Z,20.00
2023-05-08T23:17:14.346Z,20.00
2023-05-08T23:19:42.511Z,20.00
2023-05-08T23:22:09.862Z,20.00
2023-05-08T23:24:36.997Z,20.00
2023-05-08T23:27:03.773Z,19.90
2023-05-08T23:29:30.712Z,19.90
2023-05-08T23:31:57.381Z,19.90
2023-05-08T23:34:24.106Z,19.90
2023-05-08T23:36:50.773Z,19.90
2023-05-08T23:39:17.476Z,19.90
2023-05-08T23:41:44.205Z,19.90
2023-05-08T23:44:11.091Z,19.90
2023-05-08T23:46:37.951Z,19.90
2023-05-08T23:49:06.675Z,19.90
2023-05-08T23:51:33.576Z,19.90
2023-05-08T23:54:00.337Z,19.90
2023-05-08T23:56:27.127Z,19.80
2023-05-08T23:58:53.859Z,19.80
